Latest Weather Observations for Snowtown

IDS60801

Issued at 4:01 pm CST Wednesday 26 July 2017 (issued every 30 minutes, with the page automatically refreshed every 10 minutes)

About weather observations | Map of weather stations | Latest weather observations for SA | Other Formats
Station Details ID: 021133 Name: RAYVILLE PARK Lat: -33.77 Lon: 138.22 Height: 109.1 m
Data from the previous 72 hours. | See also: Recent months at Snowtown
Date/Time
CST
Temp
°C
App
Temp
°C
Dew
Point
°C
Rel
Hum
%
Delta-T
°C
Wind Press
QNH
hPa
Press
MSL
hPa
Rain since
9am
mm
Dir  Spd
km/h
Gust
km/h
Spd
kts
Gust
kts
26/04:00pm 15.8 14.1 8.5 62 3.7 NNW 7 9 4 5 1022.9 1023.0 0.0
26/03:30pm 15.9 14.3 8.6 62 3.7 NNW 7 9 4 5 1023.1 1023.2 0.0
26/03:00pm 16.0 13.8 10.7 71 2.8 NNW 13 17 7 9 1023.3 1023.4 0.0
26/02:30pm 14.0 11.6 8.8 71 2.6 NNW 11 15 6 8 1023.8 1023.9 0.0
26/02:00pm 15.5 12.4 5.7 52 4.7 NNW 11 15 6 8 1023.7 1023.8 0.0
26/01:30pm 15.7 13.7 6.2 53 4.6 NNW 6 11 3 6 1023.8 1023.9 0.0
26/01:00pm 15.3 12.9 7.1 58 4.1 NW 9 13 5 7 1023.9 1024.0 0.0
26/12:30pm 15.5 13.3 8.0 61 3.8 NW 9 15 5 8 1024.3 1024.4 0.0
26/12:00pm 14.5 12.6 9.1 70 2.8 NW 9 13 5 7 1024.6 1024.7 0.0
26/11:30am 15.1 14.7 9.7 70 2.8 NNE 2 9 1 5 1025.0 1025.1 0.0
26/11:00am 13.8 12.3 10.6 81 1.7 NNE 9 13 5 7 1025.2 1025.3 0.0
26/10:30am 13.7 12.8 10.5 81 1.7 NNE 6 11 3 6 1025.3 1025.4 0.0
26/10:00am 12.3 10.9 10.9 91 0.7 NNE 9 13 5 7 1025.3 1025.4 0.0
26/09:30am 11.1 8.7 10.2 94 0.5 NNE 13 19 7 10 1025.2 1025.3 0.0
26/09:00am 10.1 8.2 8.9 92 0.6 NNW 9 15 5 8 1025.0 1025.1 3.0
26/08:30am 10.3 8.9 9.7 96 0.3 WSW 7 7 4 4 1024.6 1024.7 3.0
26/08:00am 8.4 6.2 7.8 96 0.3 WSW 9 11 5 6 1024.3 1024.4 3.0
26/07:30am 8.1 4.7 7.5 96 0.3 WSW 15 19 8 10 1024.1 1024.2 3.0
26/07:00am 7.9 4.1 7.6 98 0.1 W 17 19 9 10 1023.5 1023.6 3.0
26/06:30am 6.0 5.0 5.4 96 0.3 CALM 0 0 0 0 1023.2 1023.3 3.0
26/06:00am 7.0 6.2 6.3 95 0.3 CALM 0 0 0 0 1022.9 1023.0 3.0
26/05:30am 7.6 6.5 6.9 95 0.3 - 2 6 1 3 1022.5 1022.6 3.0
26/05:00am 9.2 5.1 8.6 96 0.3 W 20 22 11 12 1022.2 1022.4 3.0
26/04:30am 8.5 4.3 8.1 97 0.2 W 20 22 11 12 1022.1 1022.3 3.0
26/04:00am 8.5 5.2 8.1 97 0.2 WNW 15 17 8 9 1022.7 1022.8 2.8
26/03:30am 7.9 4.9 7.5 97 0.2 N 13 17 7 9 1022.7 1022.8 2.8
26/03:00am 7.1 3.9 6.7 97 0.2 N 13 13 7 7 1022.2 1022.4 2.8
26/02:30am 6.3 5.3 5.7 96 0.3 CALM 0 0 0 0 1022.2 1022.4 2.8
26/02:00am 7.1 5.9 6.5 96 0.3 N 2 6 1 3 1022.3 1022.5 2.8
26/01:30am 6.4 4.7 5.7 95 0.3 N 4 7 2 4 1022.2 1022.4 2.8
26/01:00am 7.0 4.8 6.3 95 0.3 N 7 11 4 6 1022.1 1022.3 2.8
26/12:30am 9.0 7.2 7.9 93 0.5 N 7 9 4 5 1022.1 1022.3 2.8
26/12:00am 9.5 8.0 8.4 93 0.5 N 6 7 3 4 1022.3 1022.5 2.8
 
Date/Time
CST
Temp
°C
App
Temp
°C
Dew
Point
°C
Rel
Hum
%
Delta-T
°C
Wind Press
QNH
hPa
Press
MSL
hPa
Rain since
9am
mm
Dir  Spd
km/h
Gust
km/h
Spd
kts
Gust
kts
25/11:30pm 10.1 7.8 9.0 93 0.5 N 11 13 6 7 1022.5 1022.6 2.8
25/11:00pm 9.8 7.1 9.0 95 0.4 N 13 13 7 7 1022.3 1022.5 2.8
25/10:30pm 9.0 6.5 8.1 94 0.4 N 11 13 6 7 1022.2 1022.4 2.8
25/10:00pm 9.1 6.6 8.0 93 0.5 N 11 13 6 7 1022.0 1022.2 2.8
25/09:30pm 8.3 4.8 7.4 94 0.4 N 15 17 8 9 1021.8 1022.0 2.8
25/09:00pm 7.9 4.3 6.8 93 0.5 N 15 17 8 9 1021.6 1021.8 2.8
25/08:30pm 8.2 4.7 7.0 92 0.6 N 15 17 8 9 1021.3 1021.5 2.8
25/08:00pm 8.3 4.8 7.1 92 0.6 N 15 19 8 10 1021.0 1021.2 2.8
25/07:30pm 9.2 6.2 7.6 90 0.8 N 13 17 7 9 1020.7 1020.9 2.8
25/07:00pm 9.4 6.1 8.0 91 0.7 N 15 19 8 10 1020.6 1020.8 2.8
25/06:30pm 10.0 7.9 8.4 90 0.8 NE 9 15 5 8 1019.7 1019.9 2.8
25/06:00pm 10.2 8.2 8.6 90 0.8 NNW 9 11 5 6 1019.6 1019.8 2.8
25/05:30pm 11.2 8.3 9.6 90 0.8 NW 15 20 8 11 1019.4 1019.6 2.8
25/05:00pm 11.0 9.0 10.1 94 0.5 N 11 17 6 9 1019.6 1019.8 2.4
25/04:30pm 11.2 9.1 9.8 91 0.7 NNE 11 17 6 9 1018.6 1018.8 2.0
25/04:00pm 12.2 9.7 9.6 84 1.3 NW 13 15 7 8 1018.6 1018.8 1.6
25/03:30pm 12.5 8.5 9.1 80 1.7 NW 20 26 11 14 1019.2 1019.4 1.4
25/03:00pm 12.2 9.4 9.9 86 1.2 NW 15 17 8 9 1018.6 1018.8 1.2
25/02:30pm 12.1 8.7 9.3 83 1.4 NW 17 24 9 13 1018.5 1018.7 1.2
25/02:00pm 12.0 7.2 9.0 82 1.5 NNW 24 33 13 18 1019.1 1019.3 1.2
25/01:30pm 11.6 6.5 9.2 85 1.2 NW 26 33 14 18 1019.3 1019.5 1.2
25/01:00pm 11.9 6.2 8.2 78 1.8 NW 28 39 15 21 1019.9 1020.1 0.4
25/12:30pm 13.1 7.4 8.2 72 2.4 NW 28 35 15 19 1019.3 1019.5 0.2
25/12:00pm 12.9 6.3 8.4 74 2.2 NW 33 43 18 23 1020.3 1020.5 0.2
25/11:30am 14.3 8.5 7.8 65 3.2 NW 28 41 15 22 1019.6 1019.8 0.0
25/11:00am 13.9 8.7 7.2 64 3.3 NW 24 30 13 16 1019.5 1019.7 0.0
25/10:30am 13.9 8.6 6.7 62 3.5 NW 24 30 13 16 1019.9 1020.1 0.0
25/10:00am 14.2 9.1 6.1 58 3.9 NNW 22 30 12 16 1019.8 1020.0 0.0
25/09:30am 14.3 10.6 6.4 59 3.8 N 15 20 8 11 1019.8 1020.0 0.0
25/09:00am 12.5 8.5 6.5 67 2.9 N 17 22 9 12 1019.6 1019.8 0.0
25/08:30am 11.8 8.3 5.4 65 3.0 NNE 13 19 7 10 1019.5 1019.7 0.0
25/08:00am 11.3 6.4 5.0 65 2.9 NNW 20 24 11 13 1019.1 1019.3 0.0
25/07:30am 11.5 5.2 4.0 60 3.4 NW 26 33 14 18 1018.9 1019.1 0.0
25/07:18am 11.8 7.0 4.5 61 3.3 NNW 19 39 10 21 1018.8 1019.0 0.0
25/07:00am 7.6 3.0 3.5 75 1.8 N 17 20 9 11 1018.2 1018.4 0.0
25/06:30am 9.1 4.2 3.9 70 2.3 N 19 22 10 12 1017.8 1017.9 0.0
25/06:00am 7.6 2.7 4.0 78 1.6 N 19 22 10 12 1017.7 1017.8 0.0
25/05:30am 7.0 2.0 3.8 80 1.4 NNE 19 20 10 11 1017.6 1017.7 0.0
25/05:00am 7.4 2.8 3.8 78 1.6 N 17 20 9 11 1017.5 1017.6 0.0
25/04:30am 7.6 2.7 4.2 79 1.5 N 19 24 10 13 1017.5 1017.6 0.0
25/04:00am 6.8 1.6 3.8 81 1.3 NNE 20 26 11 14 1017.6 1017.7 0.0
25/03:30am 7.0 1.9 4.1 82 1.3 N 20 30 11 16 1017.7 1017.8 0.0
25/03:00am 6.4 1.5 3.9 84 1.1 NNE 19 24 10 13 1017.7 1017.8 0.0
25/02:30am 8.0 3.1 4.2 77 1.7 N 19 26 10 14 1017.8 1017.9 0.0
25/02:00am 8.2 3.7 4.4 77 1.7 N 17 22 9 12 1017.9 1018.0 0.0
25/01:30am 8.0 4.3 4.4 78 1.6 N 13 19 7 10 1018.0 1018.1 0.0
25/01:00am 9.4 5.3 4.6 72 2.1 N 15 20 8 11 1018.1 1018.3 0.0
25/12:30am 8.6 4.9 4.6 76 1.8 N 13 17 7 9 1018.1 1018.3 0.0
25/12:00am 7.8 4.5 4.7 81 1.4 N 11 13 6 7 1018.4 1018.6 0.0
 
Date/Time
CST
Temp
°C
App
Temp
°C
Dew
Point
°C
Rel
Hum
%
Delta-T
°C
Wind Press
QNH
hPa
Press
MSL
hPa
Rain since
9am
mm
Dir  Spd
km/h
Gust
km/h
Spd
kts
Gust
kts
24/11:30pm 7.2 3.5 4.7 84 1.1 N 13 17 7 9 1018.4 1018.6 0.0
24/11:00pm 7.6 4.0 5.1 84 1.1 N 13 13 7 7 1018.6 1018.8 0.0
24/10:30pm 8.2 4.4 5.7 84 1.1 N 15 19 8 10 1018.6 1018.8 0.0
24/10:00pm 7.9 4.1 5.9 87 0.9 NNE 15 17 8 9 1018.8 1019.0 0.0
24/09:30pm 6.4 2.8 5.0 91 0.6 N 13 17 7 9 1019.0 1019.2 0.0
24/09:00pm 7.1 3.6 5.6 90 0.7 N 13 15 7 8 1019.1 1019.3 0.0
24/08:30pm 7.4 3.9 5.5 88 0.9 NNW 13 17 7 9 1019.0 1019.2 0.0
24/08:00pm 8.9 5.6 6.3 84 1.2 NNW 13 15 7 8 1019.1 1019.3 0.0
24/07:30pm 8.9 5.6 6.2 83 1.2 NNW 13 13 7 7 1019.1 1019.3 0.0
24/07:00pm 8.8 5.9 6.3 84 1.2 NNW 11 13 6 7 1018.9 1019.1 0.0
24/06:30pm 10.3 7.6 7.2 81 1.5 NNW 11 13 6 7 1018.7 1018.9 0.0
24/06:00pm 11.9 8.9 7.8 76 2.0 NNW 13 15 7 8 1018.6 1018.8 0.0
24/05:30pm 12.8 9.8 7.9 72 2.4 NNW 13 17 7 9 1018.5 1018.7 0.0
24/05:00pm 14.2 11.8 8.8 70 2.7 NNW 11 13 6 7 1018.5 1018.7 0.0
24/04:30pm 15.1 13.1 8.8 66 3.2 NNW 9 13 5 7 1018.5 1018.7 0.0
24/04:00pm 17.4 14.2 8.3 55 4.7 NNW 15 19 8 10 1018.6 1018.8 0.0
24/03:30pm 19.0 15.4 6.8 45 6.1 NNW 15 19 8 10 1018.5 1018.7 0.0
24/03:00pm 19.4 15.1 7.2 45 6.2 NNW 19 26 10 14 1018.7 1018.9 0.0
24/02:30pm 18.8 14.3 6.3 44 6.2 NNW 19 28 10 15 1018.9 1019.1 0.0
24/02:00pm 19.4 15.1 6.8 44 6.4 NNW 19 26 10 14 1019.3 1019.5 0.0
24/01:30pm 19.1 14.7 6.6 44 6.3 NNW 19 26 10 14 1019.9 1020.1 0.0
24/01:00pm 18.9 14.4 8.6 51 5.4 NNW 22 28 12 15 1020.4 1020.6 0.0
24/12:30pm 18.2 13.2 8.2 52 5.1 NNW 24 33 13 18 1021.0 1021.2 0.0
24/12:00pm 17.4 10.7 7.5 52 5.0 NNW 32 39 17 21 1021.6 1021.8 0.0
24/11:30am 17.2 12.7 8.6 57 4.4 N 22 30 12 16 1021.8 1022.0 0.0
24/11:00am 15.3 11.5 9.9 70 2.8 NNE 20 26 11 14 1022.0 1022.2 0.0
24/10:30am 13.8 10.1 10.2 79 1.9 N 20 28 11 15 1022.0 1022.2 0.0
24/10:00am 11.9 7.9 9.1 83 1.4 N 20 26 11 14 1022.3 1022.5 0.0
24/09:30am 10.0 5.4 8.3 89 0.8 NNE 22 28 12 15 1022.0 1022.2 0.0
24/09:00am 7.6 3.6 6.7 94 0.4 N 17 20 9 11 1022.3 1022.5 0.0
24/08:30am 6.0 2.9 5.6 97 0.2 N 11 15 6 8 1022.2 1022.4 0.0
24/08:00am 4.4 0.6 4.0 97 0.2 NNE 13 13 7 7 1022.2 1022.4 0.0
24/07:30am 2.3 -1.9 1.9 97 0.2 NNE 13 17 7 9 1022.3 1022.5 0.0
24/07:00am 2.4 -1.7 2.0 97 0.2 NNE 13 15 7 8 1022.2 1022.4 0.0
24/06:30am 2.9 -0.8 2.5 97 0.2 N 11 13 6 7 1021.9 1022.1 0.0
24/06:00am 2.6 -1.9 2.2 97 0.2 N 15 15 8 8 1021.6 1021.8 0.0
24/05:30am 2.6 -2.3 2.0 96 0.2 N 17 17 9 9 1021.2 1021.4 0.0
24/05:00am 3.4 -1.4 2.8 96 0.2 N 17 19 9 10 1021.0 1021.2 0.0
24/04:30am 4.3 -0.3 3.9 97 0.2 N 17 20 9 11 1020.9 1021.1 0.0
24/04:00am 3.5 -1.2 3.1 97 0.2 N 17 19 9 10 1021.1 1021.3 0.0
24/03:30am 3.2 -0.8 2.8 97 0.2 W 13 17 7 9 1021.1 1021.3 0.0
24/03:00am 2.6 -1.5 2.0 96 0.2 W 13 15 7 8 1021.3 1021.5 0.0
24/02:30am 2.9 -1.2 2.2 95 0.3 W 13 15 7 8 1021.4 1021.6 0.0
24/02:00am 3.6 -0.7 3.0 96 0.2 W 15 17 8 9 1021.7 1021.9 0.0
24/01:30am 3.7 0.1 3.0 95 0.3 W 11 13 6 7 1021.6 1021.8 0.0
24/01:00am 3.5 -0.1 2.8 95 0.3 W 11 15 6 8 1021.6 1021.8 0.0
24/12:30am 4.5 -0.1 3.9 96 0.3 W 17 19 9 10 1021.5 1021.7 0.0
24/12:00am 3.4 -0.2 2.7 95 0.3 W 11 13 6 7 1021.5 1021.7 0.0
 
Date/Time
CST
Temp
°C
App
Temp
°C
Dew
Point
°C
Rel
Hum
%
Delta-T
°C
Wind Press
QNH
hPa
Press
MSL
hPa
Rain since
9am
mm
Dir  Spd
km/h
Gust
km/h
Spd
kts
Gust
kts
23/11:30pm 3.1 -0.3 1.9 92 0.5 W 9 11 5 6 1021.5 1021.7 0.0
23/11:00pm 4.8 2.1 3.5 91 0.5 W 7 11 4 6 1021.5 1021.7 0.0
23/10:30pm 5.8 2.6 4.9 94 0.4 W 11 15 6 8 1021.7 1021.9 0.0
23/10:00pm 5.0 1.7 4.3 95 0.3 W 11 13 6 7 1021.7 1021.9 0.0
23/09:30pm 5.1 1.7 3.9 92 0.5 W 11 13 6 7 1021.4 1021.6 0.0
23/09:00pm 4.9 2.2 3.7 92 0.5 W 7 9 4 5 1020.9 1021.1 0.0
23/08:30pm 4.9 2.8 3.7 92 0.5 SW 4 7 2 4 1020.6 1020.8 0.0
23/08:00pm 5.9 4.7 4.7 92 0.5 CALM 0 0 0 0 1020.6 1020.8 0.0
23/07:30pm 6.5 5.3 4.8 89 0.7 CALM 0 6 0 3 1020.4 1020.6 0.0
23/07:00pm 8.3 4.6 6.4 88 0.9 WSW 15 17 8 9 1019.8 1020.0 0.0
23/06:30pm 8.5 5.2 6.5 87 0.9 WSW 13 15 7 8 1019.5 1019.7 0.0
23/06:00pm 8.8 6.3 6.4 85 1.1 WSW 9 13 5 7 1019.2 1019.4 0.0
23/05:30pm 10.8 7.8 7.5 80 1.6 WSW 13 13 7 7 1019.1 1019.3 0.0
23/05:00pm 13.7 10.8 8.3 70 2.7 WSW 13 17 7 9 1018.9 1019.1 0.0
23/04:30pm 14.9 12.5 8.6 66 3.2 WSW 11 15 6 8 1018.8 1019.0 0.0

Other Formats:

Comma delimited format used in spreadsheet applications
http://www.bom.gov.au/fwo/IDS60801/IDS60801.95670.axf

JavaScript Object Notation format (JSON) in row-major order
http://www.bom.gov.au/fwo/IDS60801/IDS60801.95670.json